Time;durP1;ratioP1;P1;durP2;ratioP2;P2;SDS_P1;SDS_P2;PMS_P1;PMS_P2;Temp;Humidity;BMP_temperature;BMP_pressure;BME280_temperature;BME280_humidity;BME280_pressure;Samples;Min_cycle;Max_cycle;Signal;HPM_P1;HPM_P2
2021/04/06 00:01:31;;;;;;;3.65;1.40;;;1.80;99.90;;;;;;5055489;28;20588;-82
2021/04/06 00:03:59;;;;;;;2.28;1.20;;;1.80;99.90;;;;;;5055433;28;20210;-82
2021/04/06 00:06:27;;;;;;;3.58;1.10;;;1.80;99.90;;;;;;5055085;28;20624;-86
2021/04/06 00:08:54;;;;;;;2.25;1.25;;;1.80;99.90;;;;;;5055403;28;20219;-88
2021/04/06 00:11:21;;;;;;;7.43;1.10;;;1.80;99.90;;;;;;5055855;28;20189;-87
2021/04/06 00:13:48;;;;;;;3.92;1.40;;;1.80;99.90;;;;;;5055670;28;20225;-87
2021/04/06 00:16:15;;;;;;;6.53;1.88;;;1.80;99.90;;;;;;5055140;28;20186;-83
2021/04/06 00:18:42;;;;;;;5.68;1.58;;;1.80;99.90;;;;;;5055080;28;20236;-83
2021/04/06 00:21:10;;;;;;;3.90;1.55;;;1.80;99.90;;;;;;5054893;28;20252;-83
2021/04/06 00:23:38;;;;;;;2.88;1.30;;;1.80;99.90;;;;;;5055150;28;20217;-83
2021/04/06 00:26:05;;;;;;;4.03;1.30;;;1.80;99.90;;;;;;5054983;28;20223;-83
2021/04/06 00:28:36;;;;;;;7.50;1.30;;;1.80;99.90;;;;;;5055120;28;20235;-84
2021/04/06 00:31:04;;;;;;;5.47;1.35;;;1.80;99.90;;;;;;5054915;28;20240;-84
2021/04/06 00:33:34;;;;;;;4.55;1.60;;;1.70;99.90;;;;;;5054603;28;20240;-85
2021/04/06 00:36:03;;;;;;;3.15;1.33;;;1.70;99.90;;;;;;5053703;28;20189;-85
2021/04/06 00:38:33;;;;;;;4.13;1.05;;;1.80;99.90;;;;;;5053085;28;20186;-84
2021/04/06 00:41:02;;;;;;;4.30;1.30;;;1.70;99.90;;;;;;5054631;28;20644;-84
2021/04/06 00:43:34;;;;;;;4.00;1.75;;;1.70;99.90;;;;;;5054372;28;20221;-84
2021/04/06 00:46:01;;;;;;;5.47;1.23;;;1.70;99.90;;;;;;5054125;28;20561;-84
2021/04/06 00:48:28;;;;;;;5.32;0.90;;;1.70;99.90;;;;;;5043111;28;20779;-85
2021/04/06 00:51:09;;;;;;;11.57;5.45;;;1.70;99.90;;;;;;5051996;28;20197;-83
2021/04/06 00:53:59;;;;;;;5.78;1.60;;;1.70;99.90;;;;;;5053393;28;20637;-84
2021/04/06 00:56:28;;;;;;;2.75;0.93;;;1.70;99.90;;;;;;5054006;28;20214;-84
2021/04/06 00:58:55;;;;;;;4.40;1.10;;;1.60;99.90;;;;;;5054431;28;20190;-84
2021/04/06 01:01:29;;;;;;;3.60;1.10;;;1.60;99.90;;;;;;5054432;28;20186;-83
2021/04/06 01:03:57;;;;;;;3.03;1.10;;;1.70;99.90;;;;;;5054163;28;20224;-84
2021/04/06 01:06:25;;;;;;;5.80;2.22;;;1.60;99.90;;;;;;5054107;28;20632;-84
2021/04/06 01:08:53;;;;;;;2.10;1.00;;;1.60;99.90;;;;;;5054102;28;20189;-85
2021/04/06 01:11:20;;;;;;;3.35;1.50;;;1.60;99.90;;;;;;5054321;28;20197;-84
2021/04/06 01:13:46;;;;;;;5.50;1.20;;;1.60;99.90;;;;;;5053996;28;20633;-84
2021/04/06 01:16:13;;;;;;;2.92;1.05;;;1.50;99.90;;;;;;5053926;28;20490;-87
2021/04/06 01:18:39;;;;;;;2.53;1.33;;;1.50;99.90;;;;;;5054082;28;20228;-87
2021/04/06 01:21:08;;;;;;;2.33;1.17;;;1.50;99.90;;;;;;5053668;28;20190;-87
2021/04/06 01:23:36;;;;;;;3.83;1.38;;;1.50;99.90;;;;;;5053746;28;20541;-87
2021/04/06 01:26:02;;;;;;;3.25;1.38;;;1.50;99.90;;;;;;5053577;28;20218;-84
2021/04/06 01:28:30;;;;;;;1.95;1.05;;;1.50;99.90;;;;;;5053893;28;20194;-84
2021/04/06 01:30:58;;;;;;;3.75;1.48;;;1.50;99.90;;;;;;5053412;28;20216;-84
2021/04/06 01:33:27;;;;;;;4.05;1.40;;;1.50;99.90;;;;;;5053579;28;20545;-86
2021/04/06 01:35:54;;;;;;;2.50;1.25;;;1.50;99.90;;;;;;5053554;28;20221;-87
2021/04/06 01:38:24;;;;;;;2.75;1.20;;;1.50;99.90;;;;;;5053512;28;20205;-84
2021/04/06 01:40:52;;;;;;;4.35;1.42;;;1.50;99.90;;;;;;5053572;28;20208;-85
2021/04/06 01:43:21;;;;;;;4.38;1.60;;;1.50;99.90;;;;;;5053635;28;20178;-85
2021/04/06 01:45:52;;;;;;;4.10;1.20;;;1.50;99.90;;;;;;5053367;28;20210;-85
2021/04/06 01:48:19;;;;;;;7.07;1.55;;;1.50;99.90;;;;;;5053135;28;20697;-84
2021/04/06 01:50:49;;;;;;;2.45;1.20;;;1.50;99.90;;;;;;5053209;28;20316;-84
2021/04/06 01:53:15;;;;;;;4.10;1.70;;;1.50;99.90;;;;;;5037309;28;20190;-83
2021/04/06 01:55:47;;;;;;;5.32;1.50;;;1.50;99.90;;;;;;5053028;28;20237;-84
2021/04/06 01:58:15;;;;;;;3.90;1.42;;;1.40;99.90;;;;;;5052063;28;20545;-83
2021/04/06 02:00:55;;;;;;;6.93;1.90;;;1.40;99.90;;;;;;5061180;28;20648;-85
2021/04/06 02:03:22;;;;;;;4.43;1.88;;;1.40;99.90;;;;;;5046549;28;20268;-84
2021/04/06 02:05:49;;;;;;;2.70;1.40;;;1.40;99.90;;;;;;5050575;28;20256;-84
2021/04/06 02:08:18;;;;;;;3.38;1.52;;;1.50;99.90;;;;;;5045764;28;20214;-84
2021/04/06 02:10:45;;;;;;;4.07;1.50;;;1.50;99.90;;;;;;5046514;28;20221;-84
2021/04/06 02:13:12;;;;;;;1.98;1.10;;;1.50;99.90;;;;;;5052860;28;20553;-85
2021/04/06 02:15:40;;;;;;;1.35;1.23;;;1.50;99.90;;;;;;5049264;28;20194;-83
2021/04/06 02:18:06;;;;;;;4.90;1.65;;;1.50;99.90;;;;;;5040039;28;20190;-85
2021/04/06 02:20:33;;;;;;;3.53;1.50;;;1.50;99.90;;;;;;5040069;28;20194;-85
2021/04/06 02:23:00;;;;;;;2.65;1.45;;;1.50;99.90;;;;;;5050687;28;20186;-85
2021/04/06 02:25:26;;;;;;;5.97;1.70;;;1.50;99.90;;;;;;5052499;28;20280;-85
2021/04/06 02:27:53;;;;;;;7.22;1.67;;;1.50;99.90;;;;;;5052400;28;20286;-85
2021/04/06 02:30:29;;;;;;;1.50;1.40;;;1.50;99.90;;;;;;5052453;28;20216;-85
2021/04/06 02:32:57;;;;;;;4.30;1.80;;;1.60;99.90;;;;;;5042013;28;20197;-86
2021/04/06 02:35:24;;;;;;;3.25;1.58;;;1.60;99.90;;;;;;5047463;28;20277;-85
2021/04/06 02:37:50;;;;;;;2.13;1.30;;;1.50;99.90;;;;;;5041284;28;20198;-85
2021/04/06 02:40:18;;;;;;;1.80;1.42;;;1.50;99.90;;;;;;5042065;28;20276;-85
2021/04/06 02:42:46;;;;;;;4.35;2.30;;;1.60;99.90;;;;;;5051192;28;20197;-85
2021/04/06 02:45:15;;;;;;;6.95;1.70;;;1.60;99.90;;;;;;5037944;28;20217;-84
2021/04/06 02:47:44;;;;;;;5.25;2.22;;;1.60;99.90;;;;;;5048550;28;20610;-85
2021/04/06 02:50:13;;;;;;;2.40;1.33;;;1.50;99.90;;;;;;5048807;28;20183;-85
2021/04/06 02:52:40;;;;;;;4.40;1.48;;;1.50;99.90;;;;;;5050048;28;20665;-85
2021/04/06 02:55:08;;;;;;;4.53;1.90;;;1.40;99.90;;;;;;5042868;28;20225;-84
2021/04/06 02:57:39;;;;;;;2.78;1.30;;;1.40;99.90;;;;;;5035411;28;20673;-84
2021/04/06 03:00:06;;;;;;;3.55;1.80;;;1.50;99.90;;;;;;5029757;28;20387;-85
2021/04/06 03:02:38;;;;;;;3.88;1.45;;;1.40;99.90;;;;;;5041323;28;20194;-85
2021/04/06 03:05:05;;;;;;;3.72;1.70;;;1.40;99.90;;;;;;5048601;28;20676;-84
2021/04/06 03:07:32;;;;;;;6.22;2.03;;;1.40;99.90;;;;;;5038114;28;20189;-84
2021/04/06 03:10:00;;;;;;;2.30;1.55;;;1.40;99.90;;;;;;5043630;28;20284;-84
2021/04/06 03:12:28;;;;;;;4.32;1.92;;;1.50;99.90;;;;;;5039190;28;20654;-84
2021/04/06 03:14:54;;;;;;;4.13;2.20;;;1.40;99.90;;;;;;5046297;28;20224;-84
2021/04/06 03:17:20;;;;;;;7.93;2.55;;;1.40;99.90;;;;;;5054282;28;20583;-85
2021/04/06 03:19:55;;;;;;;3.78;1.95;;;1.40;99.90;;;;;;5044194;28;20186;-83
2021/04/06 03:22:21;;;;;;;3.45;1.60;;;1.40;99.90;;;;;;5052854;28;20280;-84
2021/04/06 03:24:49;;;;;;;5.90;1.70;;;1.40;99.90;;;;;;5054176;28;20190;-83
2021/04/06 03:27:16;;;;;;;3.35;1.42;;;1.40;99.90;;;;;;5038567;28;20228;-83
2021/04/06 03:29:42;;;;;;;3.22;1.60;;;1.40;99.90;;;;;;5066465;28;20221;-84
2021/04/06 03:32:09;;;;;;;3.83;1.55;;;1.40;99.90;;;;;;5048117;28;20858;-86
2021/04/06 03:34:38;;;;;;;4.57;2.70;;;1.40;99.90;;;;;;5038652;28;20753;-86
2021/04/06 03:37:06;;;;;;;3.20;1.83;;;1.40;99.90;;;;;;5045121;28;20199;-86
2021/04/06 03:39:33;;;;;;;1.50;1.40;;;1.40;99.90;;;;;;5050216;28;20241;-86
2021/04/06 03:42:00;;;;;;;5.65;2.35;;;1.40;99.90;;;;;;5045440;28;20197;-86
2021/04/06 03:44:29;;;;;;;2.60;1.85;;;1.40;99.90;;;;;;5053124;28;20201;-84
2021/04/06 03:46:57;;;;;;;4.15;2.00;;;1.30;99.90;;;;;;5040980;28;20303;-84
2021/04/06 03:49:26;;;;;;;2.05;1.88;;;1.30;99.90;;;;;;5048183;28;20266;-86
2021/04/06 03:51:54;;;;;;;4.25;1.77;;;1.30;99.90;;;;;;5049588;28;20186;-84
2021/04/06 03:54:46;;;;;;;2.15;1.95;;;1.30;99.90;;;;;;5047984;28;20190;-84
2021/04/06 03:57:36;;;;;;;3.20;2.25;;;1.20;99.90;;;;;;5024801;28;20185;-84
2021/04/06 04:00:05;;;;;;;3.33;2.25;;;1.20;99.90;;;;;;5054347;28;20214;-84
2021/04/06 04:02:31;;;;;;;3.17;2.42;;;1.20;99.90;;;;;;5051305;28;20205;-83
2021/04/06 04:04:58;;;;;;;7.85;1.80;;;1.10;99.90;;;;;;5053389;28;20240;-82
2021/04/06 04:07:24;;;;;;;5.22;2.35;;;1.10;99.90;;;;;;5051984;28;20218;-83
2021/04/06 04:09:50;;;;;;;4.22;2.17;;;1.10;99.90;;;;;;5054968;28;20190;-84
2021/04/06 04:12:16;;;;;;;4.78;2.70;;;1.00;99.90;;;;;;5046104;28;20285;-84
2021/04/06 04:14:43;;;;;;;4.82;2.30;;;1.00;99.90;;;;;;5039861;28;20233;-84
2021/04/06 04:17:09;;;;;;;7.75;3.40;;;1.00;99.90;;;;;;5051442;28;20281;-84
2021/04/06 04:19:35;;;;;;;5.07;3.38;;;1.00;99.90;;;;;;5050609;28;20612;-85
2021/04/06 04:22:02;;;;;;;2.95;2.38;;;1.00;99.90;;;;;;5045473;28;20190;-85
2021/04/06 04:24:28;;;;;;;4.00;2.40;;;0.90;99.90;;;;;;5048536;28;20194;-84
2021/04/06 04:26:54;;;;;;;7.05;2.85;;;0.90;99.90;;;;;;5041787;28;20210;-84
2021/04/06 04:29:20;;;;;;;2.70;2.50;;;0.90;99.90;;;;;;5051520;28;20186;-82
2021/04/06 04:31:49;;;;;;;3.45;2.60;;;0.90;99.90;;;;;;5052020;28;20217;-83
2021/04/06 04:34:16;;;;;;;4.65;2.55;;;0.90;99.90;;;;;;5054774;28;20277;-82
2021/04/06 04:36:42;;;;;;;5.70;2.10;;;0.90;99.90;;;;;;5036107;28;20240;-82
2021/04/06 04:39:08;;;;;;;3.97;2.30;;;0.90;99.90;;;;;;5043411;28;20224;-83
2021/04/06 04:41:34;;;;;;;5.00;2.55;;;0.90;99.90;;;;;;5050829;28;20209;-84
2021/04/06 04:44:00;;;;;;;3.55;1.92;;;0.80;99.90;;;;;;5052360;28;20217;-84
2021/04/06 04:46:28;;;;;;;3.38;2.10;;;0.80;99.90;;;;;;5053707;28;20249;-84
2021/04/06 04:48:56;;;;;;;4.20;2.70;;;0.90;99.90;;;;;;5038613;28;20191;-84
2021/04/06 04:51:22;;;;;;;2.92;2.45;;;0.90;99.90;;;;;;5051297;28;20216;-84
2021/04/06 04:53:48;;;;;;;2.40;2.20;;;0.90;99.90;;;;;;5048231;28;20187;-84
2021/04/06 04:56:14;;;;;;;2.80;2.20;;;0.90;99.90;;;;;;5045897;28;20937;-84
2021/04/06 04:58:40;;;;;;;5.32;2.22;;;0.90;99.90;;;;;;5048914;28;20713;-83
2021/04/06 05:01:07;;;;;;;3.75;2.22;;;0.90;99.90;;;;;;5052007;28;20229;-85
2021/04/06 05:03:33;;;;;;;3.17;2.85;;;1.00;99.90;;;;;;5049136;28;20186;-85
2021/04/06 05:06:00;;;;;;;7.70;2.35;;;1.00;99.90;;;;;;5049872;28;20225;-85
2021/04/06 05:08:26;;;;;;;3.65;2.15;;;1.00;99.90;;;;;;5047794;28;20186;-84
2021/04/06 05:10:52;;;;;;;9.30;2.67;;;1.00;99.90;;;;;;5034883;28;20285;-84
2021/04/06 05:13:18;;;;;;;7.82;2.45;;;1.10;99.90;;;;;;5044513;28;20183;-84
2021/04/06 05:15:44;;;;;;;2.10;1.90;;;1.10;99.90;;;;;;5051540;28;20531;-84
2021/04/06 05:18:10;;;;;;;3.05;2.60;;;1.20;99.90;;;;;;5050372;28;20273;-84
2021/04/06 05:20:36;;;;;;;4.10;2.20;;;1.20;99.90;;;;;;5048997;28;20273;-85
2021/04/06 05:23:03;;;;;;;4.43;2.50;;;1.20;99.90;;;;;;5038523;28;20229;-86
2021/04/06 05:25:29;;;;;;;3.78;2.33;;;1.30;99.90;;;;;;5050456;28;20186;-85
2021/04/06 05:27:55;;;;;;;9.98;2.70;;;1.30;99.90;;;;;;5051370;28;20289;-85
2021/04/06 05:30:22;;;;;;;2.88;2.50;;;1.40;99.90;;;;;;5053200;28;20191;-85
2021/04/06 05:32:48;;;;;;;4.68;2.78;;;1.50;99.90;;;;;;5046514;28;20187;-82
2021/04/06 05:35:15;;;;;;;4.22;2.28;;;1.70;99.90;;;;;;5050086;28;20638;-82
2021/04/06 05:37:41;;;;;;;6.32;2.00;;;1.80;99.90;;;;;;5049270;28;20201;-82
2021/04/06 05:40:09;;;;;;;7.05;2.50;;;2.00;99.90;;;;;;5050346;28;20186;-82
2021/04/06 05:42:37;;;;;;;3.05;2.42;;;2.20;99.90;;;;;;5053621;28;20711;-82
2021/04/06 05:45:05;;;;;;;5.20;2.65;;;2.40;99.90;;;;;;5034172;28;20263;-83
2021/04/06 05:47:37;;;;;;;4.50;2.63;;;2.50;99.90;;;;;;5048242;28;20700;-84
2021/04/06 05:50:04;;;;;;;2.75;2.22;;;2.70;99.90;;;;;;5044268;28;20198;-83
2021/04/06 05:52:30;;;;;;;9.23;2.53;;;2.80;99.90;;;;;;5048609;28;20186;-83
2021/04/06 05:54:57;;;;;;;4.43;2.40;;;2.90;99.90;;;;;;5051033;28;20254;-83
2021/04/06 05:57:24;;;;;;;3.40;2.03;;;3.00;99.90;;;;;;5050753;28;20618;-83
2021/04/06 05:59:50;;;;;;;6.20;3.25;;;3.20;99.90;;;;;;5048381;28;20538;-84
2021/04/06 06:02:17;;;;;;;5.80;2.35;;;3.40;99.90;;;;;;5049681;28;20194;-84
2021/04/06 06:04:43;;;;;;;7.50;2.78;;;3.60;99.90;;;;;;5050701;28;20277;-84
2021/04/06 06:07:11;;;;;;;8.15;2.35;;;3.60;99.90;;;;;;5051860;28;20300;-83
2021/04/06 06:09:37;;;;;;;3.00;2.75;;;3.70;99.90;;;;;;5044840;28;20193;-82
2021/04/06 06:12:05;;;;;;;4.40;2.20;;;3.80;99.90;;;;;;5052935;28;20277;-83
2021/04/06 06:14:35;;;;;;;3.70;2.47;;;4.00;99.90;;;;;;5052926;28;20193;-83
2021/04/06 06:17:16;;;;;;;6.70;2.60;;;4.00;99.90;;;;;;5052826;28;20239;-83
2021/04/06 06:19:43;;;;;;;3.05;2.20;;;4.10;99.90;;;;;;5052887;28;20265;-83
2021/04/06 06:22:15;;;;;;;3.47;2.67;;;4.30;99.90;;;;;;5052876;28;20259;-84
2021/04/06 06:24:45;;;;;;;2.72;2.53;;;4.50;99.90;;;;;;5052949;28;20182;-84
2021/04/06 06:27:26;;;;;;;6.18;3.20;;;4.70;99.90;;;;;;5052705;28;20218;-84
2021/04/06 06:29:53;;;;;;;3.10;2.33;;;5.00;99.90;;;;;;5052362;28;20190;-85
2021/04/06 06:32:21;;;;;;;6.15;2.40;;;5.30;99.90;;;;;;5052219;28;20657;-94
2021/04/06 06:34:48;;;;;;;4.80;2.70;;;5.50;99.90;;;;;;5053199;28;20200;-88
2021/04/06 06:37:17;;;;;;;5.70;2.40;;;5.80;99.90;;;;;;5038463;28;20220;-91
2021/04/06 06:39:58;;;;;;;2.45;2.15;;;6.00;99.90;;;;;;5053464;28;20189;-85
2021/04/06 06:42:26;;;;;;;4.57;2.70;;;6.20;99.90;;;;;;5052537;28;20213;-85
2021/04/06 06:44:53;;;;;;;3.95;2.50;;;6.30;99.90;;;;;;5044793;28;20201;-85
2021/04/06 06:47:21;;;;;;;8.60;2.40;;;6.50;99.90;;;;;;5046586;28;20218;-84
2021/04/06 06:49:51;;;;;;;5.55;2.38;;;6.70;99.90;;;;;;5040677;28;20217;-82
2021/04/06 06:52:31;;;;;;;8.45;3.05;;;6.90;99.90;;;;;;5052086;28;20186;-82
2021/04/06 06:55:00;;;;;;;5.90;3.10;;;7.10;99.90;;;;;;5052223;28;20327;-83
2021/04/06 06:57:30;;;;;;;3.08;2.42;;;7.00;99.90;;;;;;5052259;28;20653;-83
2021/04/06 07:00:11;;;;;;;5.55;3.22;;;7.30;99.90;;;;;;5052520;28;20549;-83
2021/04/06 07:02:38;;;;;;;3.00;2.35;;;7.20;99.90;;;;;;5051887;28;20217;-83
2021/04/06 07:05:13;;;;;;;6.50;2.70;;;7.10;99.90;;;;;;5052026;28;20248;-83
2021/04/06 07:07:57;;;;;;;19.00;8.80;;;7.10;99.90;;;;;;5052075;28;20212;-85
2021/04/06 07:10:26;;;;;;;4.80;3.80;;;7.50;99.90;;;;;;5052157;28;20220;-86
2021/04/06 07:12:57;;;;;;;3.67;2.78;;;8.10;99.90;;;;;;5052021;28;20530;-85
2021/04/06 07:15:26;;;;;;;3.33;2.50;;;8.60;99.90;;;;;;5052195;28;20219;-84
2021/04/06 07:17:58;;;;;;;3.72;2.28;;;8.70;99.90;;;;;;5052172;28;20654;-85
2021/04/06 07:20:26;;;;;;;4.43;2.42;;;8.60;99.90;;;;;;5052351;28;20562;-85
2021/04/06 07:22:55;;;;;;;3.17;2.45;;;8.30;99.90;;;;;;5051832;28;20197;-85
2021/04/06 07:25:22;;;;;;;5.45;2.30;;;8.10;99.90;;;;;;5052151;28;20185;-85
2021/04/06 07:27:49;;;;;;;4.07;1.70;;;7.80;99.90;;;;;;5051727;28;20693;-85
2021/04/06 07:30:16;;;;;;;3.28;2.63;;;7.70;99.90;;;;;;5051842;28;20237;-85
2021/04/06 07:32:43;;;;;;;6.50;2.58;;;7.50;99.90;;;;;;5049096;28;20332;-85
2021/04/06 07:35:10;;;;;;;3.80;2.00;;;7.30;99.90;;;;;;5033735;28;20597;-81
2021/04/06 07:37:41;;;;;;;5.00;2.00;;;7.20;99.90;;;;;;5037593;28;20276;-82
2021/04/06 07:40:10;;;;;;;3.67;2.08;;;7.10;99.90;;;;;;5042905;28;20186;-85
2021/04/06 07:42:38;;;;;;;2.80;2.00;;;7.10;99.90;;;;;;5051974;28;20285;-84
2021/04/06 07:45:07;;;;;;;2.17;1.83;;;7.00;99.90;;;;;;5051923;28;20667;-84
2021/04/06 07:47:37;;;;;;;3.67;2.25;;;7.10;99.90;;;;;;5051199;28;20217;-84
2021/04/06 07:50:11;;;;;;;3.40;2.63;;;7.30;99.90;;;;;;5052171;28;20277;-84
2021/04/06 07:52:37;;;;;;;3.08;2.22;;;7.50;99.90;;;;;;5051843;28;20194;-85
2021/04/06 07:55:04;;;;;;;2.47;2.28;;;7.70;99.90;;;;;;5051575;28;20225;-84
2021/04/06 07:57:42;;;;;;;4.78;2.25;;;8.00;99.90;;;;;;5051885;28;20190;-82
2021/04/06 08:00:09;;;;;;;7.75;2.15;;;8.40;99.90;;;;;;5051735;28;20240;-84
2021/04/06 08:02:44;;;;;;;2.15;1.90;;;8.50;99.90;;;;;;5050008;28;20190;-84
2021/04/06 08:05:18;;;;;;;3.35;2.47;;;8.20;99.90;;;;;;5055080;28;20243;-83
2021/04/06 08:07:44;;;;;;;5.80;2.15;;;8.00;99.90;;;;;;5055068;28;20218;-84
2021/04/06 08:10:47;;;;;;;8.35;2.20;;;8.00;99.90;;;;;;5055482;28;20190;-83
2021/04/06 08:13:13;;;;;;;3.42;2.42;;;8.00;99.90;;;;;;5038838;28;20181;-83
2021/04/06 08:15:40;;;;;;;5.60;2.67;;;7.80;99.90;;;;;;5055328;28;20218;-84
2021/04/06 08:18:06;;;;;;;3.80;2.15;;;7.80;99.90;;;;;;5054848;28;20189;-84
2021/04/06 08:21:07;;;;;;;5.05;2.45;;;8.00;99.90;;;;;;5055317;28;20190;-84
2021/04/06 08:23:41;;;;;;;3.42;2.60;;;8.30;99.90;;;;;;5041510;28;20190;-84
2021/04/06 08:26:25;;;;;;;5.30;2.80;;;8.50;99.90;;;;;;5054054;28;20228;-85
2021/04/06 08:28:52;;;;;;;4.80;2.70;;;8.50;99.90;;;;;;5054845;28;20182;-84
2021/04/06 08:31:32;;;;;;;10.20;2.65;;;8.70;99.90;;;;;;5054899;28;20190;-84
2021/04/06 08:34:35;;;;;;;3.15;2.25;;;8.70;99.90;;;;;;5054704;28;20190;-84
2021/04/06 08:37:13;;;;;;;4.80;1.85;;;8.50;99.90;;;;;;5054687;28;20190;-85
2021/04/06 08:39:40;;;;;;;8.35;1.90;;;8.20;99.90;;;;;;5054752;28;20293;-85
2021/04/06 08:42:08;;;;;;;6.70;2.28;;;8.00;99.90;;;;;;5054839;28;20190;-84
2021/04/06 08:44:36;;;;;;;9.27;2.90;;;8.00;99.90;;;;;;5054896;28;20193;-84
2021/04/06 08:47:02;;;;;;;5.72;3.10;;;7.80;99.90;;;;;;5054598;28;20624;-82
2021/04/06 08:49:29;;;;;;;5.00;2.80;;;7.60;99.90;;;;;;5054677;28;20190;-84
2021/04/06 08:51:56;;;;;;;10.15;3.08;;;7.60;99.90;;;;;;5054582;28;20649;-84
2021/04/06 08:54:26;;;;;;;6.05;2.25;;;7.70;99.90;;;;;;5054502;28;20226;-84
2021/04/06 08:56:54;;;;;;;6.18;2.65;;;7.70;99.90;;;;;;5054459;28;20649;-84
2021/04/06 08:59:25;;;;;;;6.22;2.75;;;7.90;99.90;;;;;;5054679;28;20545;-84
2021/04/06 09:01:55;;;;;;;5.80;3.00;;;8.10;99.90;;;;;;5054321;28;20243;-84
2021/04/06 09:04:23;;;;;;;4.43;2.15;;;8.20;99.90;;;;;;5054303;28;20222;-84
2021/04/06 09:06:50;;;;;;;7.60;3.08;;;8.30;99.90;;;;;;5054346;28;20249;-84
2021/04/06 09:09:19;;;;;;;3.97;2.90;;;8.20;99.90;;;;;;5054531;28;20186;-84
2021/04/06 09:11:47;;;;;;;3.35;2.90;;;8.20;99.90;;;;;;5054228;28;20213;-85
2021/04/06 09:14:14;;;;;;;6.20;3.10;;;8.20;99.90;;;;;;5053003;28;20702;-84
2021/04/06 09:16:42;;;;;;;5.03;2.70;;;8.30;99.90;;;;;;5054264;28;20186;-83
2021/04/06 09:19:12;;;;;;;3.58;2.50;;;8.30;99.90;;;;;;5054177;28;20290;-84
2021/04/06 09:21:39;;;;;;;4.40;2.40;;;8.10;99.90;;;;;;5054174;28;20189;-84
2021/04/06 09:24:09;;;;;;;9.00;3.42;;;8.00;99.90;;;;;;5054003;28;20576;-83
2021/04/06 09:26:37;;;;;;;6.37;2.47;;;7.80;99.90;;;;;;5053861;28;20680;-84
2021/04/06 09:29:10;;;;;;;9.10;3.35;;;7.80;99.90;;;;;;5053797;28;20452;-84
2021/04/06 09:31:41;;;;;;;7.45;2.30;;;7.90;99.90;;;;;;5053730;28;20201;-84
2021/04/06 09:34:10;;;;;;;4.28;2.47;;;8.00;99.90;;;;;;5054032;28;20598;-83
2021/04/06 09:36:38;;;;;;;5.78;2.80;;;8.00;99.90;;;;;;5053721;28;20194;-83
2021/04/06 09:39:07;;;;;;;4.75;2.60;;;7.90;99.90;;;;;;5053812;28;20217;-84
2021/04/06 09:41:35;;;;;;;8.50;3.03;;;8.00;99.90;;;;;;5042081;28;20201;-84
2021/04/06 09:44:03;;;;;;;4.93;2.80;;;8.10;99.90;;;;;;5045521;28;20657;-84
2021/04/06 09:46:39;;;;;;;5.10;3.33;;;8.30;99.90;;;;;;5046547;28;20692;-84
2021/04/06 09:49:06;;;;;;;6.45;2.78;;;8.60;99.90;;;;;;5038227;28;20186;-84
2021/04/06 09:51:33;;;;;;;5.65;2.47;;;8.50;99.90;;;;;;5050392;28;20674;-84
2021/04/06 09:54:00;;;;;;;6.80;2.83;;;8.30;99.90;;;;;;5044313;28;20213;-84
2021/04/06 09:56:27;;;;;;;10.05;3.10;;;8.20;99.90;;;;;;5044278;28;20242;-84
2021/04/06 09:58:53;;;;;;;5.05;2.83;;;8.00;99.90;;;;;;5036586;28;20282;-84
2021/04/06 10:01:21;;;;;;;6.18;2.65;;;8.10;99.90;;;;;;5041272;28;20210;-84
2021/04/06 10:03:52;;;;;;;3.85;2.50;;;8.30;99.90;;;;;;5053189;28;20186;-85
2021/04/06 10:06:18;;;;;;;6.03;2.67;;;8.40;99.90;;;;;;5052454;28;20245;-84
2021/04/06 10:08:44;;;;;;;5.53;4.03;;;8.60;99.90;;;;;;5053058;28;20216;-84
2021/04/06 10:11:10;;;;;;;7.65;2.58;;;8.80;99.90;;;;;;5051195;28;20209;-84
2021/04/06 10:13:38;;;;;;;8.13;2.85;;;9.00;99.90;;;;;;5052857;28;20684;-84
2021/04/06 10:16:07;;;;;;;4.63;2.65;;;9.10;99.90;;;;;;5053045;28;20186;-84
2021/04/06 10:18:39;;;;;;;6.83;3.47;;;9.20;99.90;;;;;;5052832;28;20186;-85
2021/04/06 10:21:18;;;;;;;5.77;2.50;;;9.30;99.90;;;;;;5052715;28;20809;-84
2021/04/06 10:23:44;;;;;;;6.13;2.83;;;9.50;99.90;;;;;;5052720;28;21160;-84
2021/04/06 10:26:22;;;;;;;10.07;3.30;;;9.70;99.90;;;;;;5052432;28;20982;-85
2021/04/06 10:29:01;;;;;;;5.10;2.47;;;9.70;99.90;;;;;;5052679;28;20440;-85
2021/04/06 10:31:27;;;;;;;4.50;2.50;;;9.60;99.90;;;;;;5052502;28;20816;-84
2021/04/06 10:33:53;;;;;;;4.77;2.20;;;9.40;99.90;;;;;;5052701;28;20776;-84
2021/04/06 10:36:20;;;;;;;4.80;2.10;;;9.50;99.90;;;;;;5052882;28;20781;-85
2021/04/06 10:38:47;;;;;;;5.50;2.60;;;9.70;99.90;;;;;;5052684;28;20437;-84
2021/04/06 10:41:15;;;;;;;7.57;2.77;;;9.80;99.90;;;;;;5035463;28;20440;-85
2021/04/06 10:43:43;;;;;;;4.73;2.53;;;9.90;99.90;;;;;;5052158;28;20997;-85
2021/04/06 10:46:12;;;;;;;5.60;2.50;;;10.10;99.90;;;;;;5052306;28;20464;-84
2021/04/06 10:48:40;;;;;;;6.53;2.93;;;10.10;99.90;;;;;;5052471;28;20449;-85
2021/04/06 10:51:10;;;;;;;8.00;2.87;;;10.00;99.90;;;;;;5052447;28;20943;-86
2021/04/06 10:53:41;;;;;;;6.30;2.77;;;9.70;99.90;;;;;;5052477;28;20448;-85
2021/04/06 10:56:11;;;;;;;3.87;2.17;;;9.40;99.90;;;;;;5052178;28;20564;-85
2021/04/06 10:58:39;;;;;;;4.20;2.95;;;9.20;99.90;;;;;;5052244;28;20444;-84
2021/04/06 11:01:08;;;;;;;7.35;1.90;;;9.10;99.90;;;;;;5052075;28;20202;-85
2021/04/06 11:03:43;;;;;;;3.90;2.20;;;9.20;99.90;;;;;;5052315;28;20206;-84
2021/04/06 11:06:11;;;;;;;3.93;2.40;;;9.30;99.90;;;;;;5052208;28;20483;-85
2021/04/06 11:08:42;;;;;;;6.70;2.00;;;9.40;99.90;;;;;;5048453;28;20444;-84
2021/04/06 11:11:18;;;;;;;6.23;2.33;;;9.40;99.90;;;;;;5048303;28;20456;-84
2021/04/06 11:13:44;;;;;;;4.10;2.40;;;9.20;99.90;;;;;;5052237;28;20472;-85
2021/04/06 11:16:11;;;;;;;4.18;2.22;;;8.90;99.90;;;;;;5052001;28;20618;-85
2021/04/06 11:18:38;;;;;;;3.57;2.27;;;8.70;99.90;;;;;;5047780;28;20541;-84
2021/04/06 11:21:05;;;;;;;12.40;3.50;;;8.70;99.90;;;;;;5051924;28;20506;-85
2021/04/06 11:23:31;;;;;;;3.67;2.20;;;8.90;99.90;;;;;;5052093;28;20213;-85
2021/04/06 11:25:58;;;;;;;3.08;1.58;;;9.10;99.90;;;;;;5051781;28;20660;-85
2021/04/06 11:28:24;;;;;;;6.55;3.25;;;9.30;99.90;;;;;;5052250;28;20189;-85
2021/04/06 11:30:50;;;;;;;5.80;2.30;;;9.50;99.90;;;;;;5051829;28;20276;-85
2021/04/06 11:33:16;;;;;;;4.95;2.10;;;9.60;99.90;;;;;;5051184;28;20444;-84
2021/04/06 11:35:43;;;;;;;2.20;1.98;;;9.60;99.90;;;;;;5047274;28;20190;-84
2021/04/06 11:38:09;;;;;;;2.07;1.50;;;9.50;99.90;;;;;;5054566;28;20186;-84
2021/04/06 11:40:35;;;;;;;3.73;1.80;;;9.50;99.90;;;;;;5053094;28;20463;-84
2021/04/06 11:43:02;;;;;;;5.00;2.37;;;9.50;99.90;;;;;;5042184;28;20449;-84
2021/04/06 11:45:28;;;;;;;2.00;1.40;;;9.40;99.90;;;;;;5044824;28;20478;-84
2021/04/06 11:47:55;;;;;;;2.05;1.70;;;9.10;99.90;;;;;;5055288;28;20498;-84
2021/04/06 11:50:23;;;;;;;4.40;1.63;;;9.10;99.90;;;;;;5047519;28;20217;-83
2021/04/06 11:52:50;;;;;;;4.70;2.43;;;9.20;99.90;;;;;;5052384;28;20451;-84
2021/04/06 11:55:17;;;;;;;3.50;1.87;;;9.50;99.90;;;;;;5049542;28;20481;-84
2021/04/06 11:57:43;;;;;;;6.10;2.03;;;10.00;99.90;;;;;;5055154;28;20444;-84
2021/04/06 12:00:11;;;;;;;5.13;2.20;;;10.30;99.90;;;;;;5055132;28;20444;-84
2021/04/06 12:02:38;;;;;;;1.43;1.33;;;10.50;99.90;;;;;;5055292;28;20531;-85
2021/04/06 12:05:04;;;;;;;3.20;2.07;;;10.70;99.90;;;;;;5055090;28;20863;-84
2021/04/06 12:07:30;;;;;;;10.03;2.93;;;10.90;99.90;;;;;;5041337;28;20511;-84
2021/04/06 12:09:58;;;;;;;5.73;1.80;;;10.90;99.90;;;;;;5054844;28;20451;-84
2021/04/06 12:12:24;;;;;;;7.90;2.20;;;10.90;99.90;;;;;;5052983;28;20452;-84
2021/04/06 12:14:50;;;;;;;3.10;1.50;;;10.80;99.90;;;;;;5055126;28;20478;-84
2021/04/06 12:17:17;;;;;;;3.40;1.40;;;10.70;99.90;;;;;;5054915;28;20452;-85
2021/04/06 12:19:43;;;;;;;3.30;1.90;;;10.70;99.90;;;;;;5054930;28;20467;-84
2021/04/06 12:22:09;;;;;;;2.83;1.37;;;10.80;99.90;;;;;;5054678;28;20479;-85
2021/04/06 12:24:35;;;;;;;4.70;2.27;;;11.10;99.90;;;;;;5055085;28;20986;-84
2021/04/06 12:27:02;;;;;;;2.40;1.87;;;11.10;99.90;;;;;;5054678;28;20582;-84
2021/04/06 12:29:28;;;;;;;2.27;1.40;;;11.00;99.90;;;;;;5054964;28;20448;-85
2021/04/06 12:31:54;;;;;;;2.20;1.77;;;10.80;99.90;;;;;;5054583;28;20590;-84
2021/04/06 12:34:21;;;;;;;3.63;1.53;;;10.50;99.90;;;;;;5051529;28;20457;-84
2021/04/06 12:36:47;;;;;;;4.87;1.30;;;10.10;99.90;;;;;;5051221;28;20785;-84
2021/04/06 12:39:13;;;;;;;4.17;2.20;;;9.80;99.90;;;;;;5052496;28;20463;-84
2021/04/06 12:41:40;;;;;;;3.50;1.60;;;9.80;99.90;;;;;;5053973;28;20444;-85
2021/04/06 12:44:06;;;;;;;2.30;1.20;;;9.70;99.90;;;;;;5054510;28;20449;-85
2021/04/06 12:46:32;;;;;;;2.33;1.50;;;9.60;99.90;;;;;;5054376;28;20546;-83
2021/04/06 12:48:58;;;;;;;2.67;1.50;;;9.60;99.90;;;;;;5054178;28;20543;-85
2021/04/06 12:51:25;;;;;;;3.67;1.70;;;9.50;99.90;;;;;;5053416;28;20467;-85
2021/04/06 12:53:52;;;;;;;3.17;1.80;;;9.40;99.90;;;;;;5050940;28;20445;-85
2021/04/06 12:56:18;;;;;;;3.37;1.50;;;9.10;99.90;;;;;;5046340;28;20567;-85
2021/04/06 12:58:44;;;;;;;3.08;1.40;;;8.80;99.90;;;;;;5054469;28;20970;-84
2021/04/06 13:01:11;;;;;;;3.17;1.27;;;8.60;99.90;;;;;;5054167;28;20664;-84
2021/04/06 13:03:37;;;;;;;3.07;1.33;;;8.40;99.90;;;;;;5054032;28;20680;-84